Terminal Aerodrome Forecast
Issued by NWS

Home | Current Version | Previous Version | Text Only | Print | Product List | Glossary On
Versions: 1 2 3 4 5 6 7 8 9 10 11 12 13 14 15 16 17 18 19 20 21 22 23 24 25 26 27 28 29 30 31 32 33 34 35 36 37 38 39 40 41 42 43 44 45 46
000
FTAK31 PAFA 251727
TAFAQT
TAF
PAQT 251727Z 2518/2618 06014KT P6SM OVC100
     FM252100 07015KT 2SM -SN BR SCT007 BKN025 OVC035
     FM260000 07020KT 1 1/2SM -SN BLSN BR SCT007 BKN015 OVC025
     FM260600 07020G30KT 1/2SM SN BLSN FZFG BKN007 OVC015=

USA.gov is the U.S. government's official web portal to all federal, state and local government web resources and services.